sensor_id;sensor_type;location;lat;lon;timestamp;pressure;altitude;pressure_sealevel;temperature;humidity
69624;BME280;56843;52.020;5.670;2022-07-10T00:00:40;102571.13;;;13.99;64.22
69624;BME280;56843;52.020;5.670;2022-07-10T00:02:11;102578.75;;;13.92;64.53
69624;BME280;56843;52.020;5.670;2022-07-10T00:03:41;102575.72;;;13.85;64.68
69624;BME280;56843;52.020;5.670;2022-07-10T00:05:14;102577.38;;;13.81;64.64
69624;BME280;56843;52.020;5.670;2022-07-10T00:06:45;102571.25;;;13.81;64.90
69624;BME280;56843;52.020;5.670;2022-07-10T00:08:17;102576.09;;;13.79;65.06
69624;BME280;56843;52.020;5.670;2022-07-10T00:09:47;102573.94;;;13.81;64.57
69624;BME280;56843;52.020;5.670;2022-07-10T00:11:18;102567.44;;;13.82;64.56
69624;BME280;56843;52.020;5.670;2022-07-10T00:12:50;102578.69;;;13.84;64.74
69624;BME280;56843;52.020;5.670;2022-07-10T00:14:20;102569.06;;;13.83;65.10
69624;BME280;56843;52.020;5.670;2022-07-10T00:15:51;102565.06;;;13.80;64.88
69624;BME280;56843;52.020;5.670;2022-07-10T00:17:21;102561.91;;;13.78;64.60
69624;BME280;56843;52.020;5.670;2022-07-10T00:18:52;102563.28;;;13.76;65.13
69624;BME280;56843;52.020;5.670;2022-07-10T00:20:22;102562.00;;;13.73;65.04
69624;BME280;56843;52.020;5.670;2022-07-10T00:21:53;102565.00;;;13.72;65.10
69624;BME280;56843;52.020;5.670;2022-07-10T00:23:23;102566.66;;;13.68;65.30
69624;BME280;56843;52.020;5.670;2022-07-10T00:24:54;102561.09;;;13.64;65.18
69624;BME280;56843;52.020;5.670;2022-07-10T00:26:24;102566.28;;;13.61;65.56
69624;BME280;56843;52.020;5.670;2022-07-10T00:27:55;102562.31;;;13.58;65.30
69624;BME280;56843;52.020;5.670;2022-07-10T00:29:25;102555.66;;;13.56;65.31
69624;BME280;56843;52.020;5.670;2022-07-10T00:30:56;102548.81;;;13.50;65.59
69624;BME280;56843;52.020;5.670;2022-07-10T00:32:26;102548.72;;;13.41;66.17
69624;BME280;56843;52.020;5.670;2022-07-10T00:33:57;102547.81;;;13.32;66.30
69624;BME280;56843;52.020;5.670;2022-07-10T00:35:27;102544.50;;;13.21;66.61
69624;BME280;56843;52.020;5.670;2022-07-10T00:36:58;102547.59;;;13.15;66.85
69624;BME280;56843;52.020;5.670;2022-07-10T00:38:28;102542.13;;;13.06;66.96
69624;BME280;56843;52.020;5.670;2022-07-10T00:39:59;102545.19;;;13.00;67.44
69624;BME280;56843;52.020;5.670;2022-07-10T00:41:29;102551.75;;;12.94;67.52
69624;BME280;56843;52.020;5.670;2022-07-10T00:43:00;102537.94;;;12.87;68.03
69624;BME280;56843;52.020;5.670;2022-07-10T00:44:30;102545.28;;;12.81;67.86
69624;BME280;56843;52.020;5.670;2022-07-10T00:46:00;102539.97;;;12.76;68.16
69624;BME280;56843;52.020;5.670;2022-07-10T00:47:31;102536.28;;;12.72;68.34
69624;BME280;56843;52.020;5.670;2022-07-10T00:49:01;102543.34;;;12.68;68.58
69624;BME280;56843;52.020;5.670;2022-07-10T00:50:33;102537.75;;;12.65;68.63
69624;BME280;56843;52.020;5.670;2022-07-10T00:52:07;102548.47;;;12.65;68.91
69624;BME280;56843;52.020;5.670;2022-07-10T00:53:37;102547.66;;;12.64;68.64
69624;BME280;56843;52.020;5.670;2022-07-10T00:55:09;102542.03;;;12.66;68.57
69624;BME280;56843;52.020;5.670;2022-07-10T00:56:41;102544.09;;;12.69;68.55
69624;BME280;56843;52.020;5.670;2022-07-10T00:58:12;102544.59;;;12.71;68.57
69624;BME280;56843;52.020;5.670;2022-07-10T00:59:47;102541.03;;;12.75;68.58
69624;BME280;56843;52.020;5.670;2022-07-10T01:01:19;102539.13;;;12.81;68.39
69624;BME280;56843;52.020;5.670;2022-07-10T01:02:50;102538.50;;;12.84;68.20
69624;BME280;56843;52.020;5.670;2022-07-10T01:04:22;102539.53;;;12.88;68.15
69624;BME280;56843;52.020;5.670;2022-07-10T01:05:53;102533.56;;;12.91;68.26
69624;BME280;56843;52.020;5.670;2022-07-10T01:07:23;102539.16;;;12.94;68.03
69624;BME280;56843;52.020;5.670;2022-07-10T01:08:54;102530.78;;;12.96;67.89
69624;BME280;56843;52.020;5.670;2022-07-10T01:10:24;102535.56;;;12.99;67.98
69624;BME280;56843;52.020;5.670;2022-07-10T01:11:56;102522.66;;;13.01;68.12
69624;BME280;56843;52.020;5.670;2022-07-10T01:13:27;102523.97;;;13.03;68.13
69624;BME280;56843;52.020;5.670;2022-07-10T01:14:58;102520.97;;;13.05;67.79
69624;BME280;56843;52.020;5.670;2022-07-10T01:16:29;102521.47;;;13.07;67.94
69624;BME280;56843;52.020;5.670;2022-07-10T01:18:00;102524.66;;;13.09;67.73
69624;BME280;56843;52.020;5.670;2022-07-10T01:19:30;102527.81;;;13.11;68.07
69624;BME280;56843;52.020;5.670;2022-07-10T01:21:00;102524.06;;;13.12;67.84
69624;BME280;56843;52.020;5.670;2022-07-10T01:22:31;102523.44;;;13.15;67.83
69624;BME280;56843;52.020;5.670;2022-07-10T01:24:09;102525.53;;;13.18;67.70
69624;BME280;56843;52.020;5.670;2022-07-10T01:25:40;102519.88;;;13.19;67.49
69624;BME280;56843;52.020;5.670;2022-07-10T01:27:10;102529.22;;;13.22;67.58
69624;BME280;56843;52.020;5.670;2022-07-10T01:28:41;102527.84;;;13.24;67.41
69624;BME280;56843;52.020;5.670;2022-07-10T01:30:12;102529.94;;;13.27;67.58
69624;BME280;56843;52.020;5.670;2022-07-10T01:31:42;102510.84;;;13.29;67.73
69624;BME280;56843;52.020;5.670;2022-07-10T01:33:13;102517.50;;;13.32;67.44
69624;BME280;56843;52.020;5.670;2022-07-10T01:34:43;102519.88;;;13.33;67.56
69624;BME280;56843;52.020;5.670;2022-07-10T01:36:14;102515.63;;;13.32;67.61
69624;BME280;56843;52.020;5.670;2022-07-10T01:37:45;102511.81;;;13.33;67.44
69624;BME280;56843;52.020;5.670;2022-07-10T01:39:16;102514.31;;;13.30;67.59
69624;BME280;56843;52.020;5.670;2022-07-10T01:40:46;102515.22;;;13.25;67.94
69624;BME280;56843;52.020;5.670;2022-07-10T01:42:16;102512.13;;;13.18;67.70
69624;BME280;56843;52.020;5.670;2022-07-10T01:43:47;102507.47;;;13.10;68.08
69624;BME280;56843;52.020;5.670;2022-07-10T01:45:18;102511.81;;;13.06;68.30
69624;BME280;56843;52.020;5.670;2022-07-10T01:46:49;102508.63;;;13.04;68.51
69624;BME280;56843;52.020;5.670;2022-07-10T01:48:19;102505.19;;;13.03;68.63
69624;BME280;56843;52.020;5.670;2022-07-10T01:49:50;102502.19;;;13.05;68.35
69624;BME280;56843;52.020;5.670;2022-07-10T01:51:21;102506.44;;;13.06;68.70
69624;BME280;56843;52.020;5.670;2022-07-10T01:52:52;102512.84;;;13.10;68.38
69624;BME280;56843;52.020;5.670;2022-07-10T01:54:22;102513.59;;;13.10;68.49
69624;BME280;56843;52.020;5.670;2022-07-10T01:55:53;102508.75;;;13.12;68.40
69624;BME280;56843;52.020;5.670;2022-07-10T01:57:23;102506.28;;;13.16;68.36
69624;BME280;56843;52.020;5.670;2022-07-10T01:58:53;102504.09;;;13.18;68.29
69624;BME280;56843;52.020;5.670;2022-07-10T02:00:24;102517.50;;;13.18;68.54
69624;BME280;56843;52.020;5.670;2022-07-10T02:01:54;102508.38;;;13.19;68.39
69624;BME280;56843;52.020;5.670;2022-07-10T02:03:25;102509.13;;;13.19;68.04
69624;BME280;56843;52.020;5.670;2022-07-10T02:05:14;102515.31;;;13.20;68.31
69624;BME280;56843;52.020;5.670;2022-07-10T02:06:44;102498.13;;;13.21;68.41
69624;BME280;56843;52.020;5.670;2022-07-10T02:08:15;102499.72;;;13.22;68.25
69624;BME280;56843;52.020;5.670;2022-07-10T02:09:45;102503.19;;;13.22;67.99
69624;BME280;56843;52.020;5.670;2022-07-10T02:11:15;102502.88;;;13.24;68.04
69624;BME280;56843;52.020;5.670;2022-07-10T02:12:46;102501.00;;;13.24;68.39
69624;BME280;56843;52.020;5.670;2022-07-10T02:14:16;102506.38;;;13.24;68.23
69624;BME280;56843;52.020;5.670;2022-07-10T02:15:47;102501.81;;;13.25;68.32
69624;BME280;56843;52.020;5.670;2022-07-10T02:17:17;102504.47;;;13.25;68.15
69624;BME280;56843;52.020;5.670;2022-07-10T02:18:48;102501.50;;;13.26;68.29
69624;BME280;56843;52.020;5.670;2022-07-10T02:20:18;102496.44;;;13.25;68.05
69624;BME280;56843;52.020;5.670;2022-07-10T02:21:49;102488.66;;;13.23;68.24
69624;BME280;56843;52.020;5.670;2022-07-10T02:23:19;102496.53;;;13.20;68.46
69624;BME280;56843;52.020;5.670;2022-07-10T02:24:50;102495.03;;;13.14;68.66
69624;BME280;56843;52.020;5.670;2022-07-10T02:26:20;102490.06;;;13.07;68.68
69624;BME280;56843;52.020;5.670;2022-07-10T02:27:51;102484.81;;;13.02;68.89
69624;BME280;56843;52.020;5.670;2022-07-10T02:29:21;102489.38;;;13.02;69.04
69624;BME280;56843;52.020;5.670;2022-07-10T02:30:53;102486.41;;;13.03;69.13
69624;BME280;56843;52.020;5.670;2022-07-10T02:32:23;102475.38;;;13.05;68.82
69624;BME280;56843;52.020;5.670;2022-07-10T02:33:54;102484.72;;;13.07;69.13
69624;BME280;56843;52.020;5.670;2022-07-10T02:35:25;102479.03;;;13.09;68.97
69624;BME280;56843;52.020;5.670;2022-07-10T02:36:55;102479.53;;;13.11;69.08
69624;BME280;56843;52.020;5.670;2022-07-10T02:38:25;102473.88;;;13.12;68.89
69624;BME280;56843;52.020;5.670;2022-07-10T02:39:56;102482.44;;;13.14;68.52
69624;BME280;56843;52.020;5.670;2022-07-10T02:41:27;102471.72;;;13.14;68.33
69624;BME280;56843;52.020;5.670;2022-07-10T02:42:57;102477.25;;;13.18;68.51
69624;BME280;56843;52.020;5.670;2022-07-10T02:44:27;102474.25;;;13.19;68.46
69624;BME280;56843;52.020;5.670;2022-07-10T02:45:59;102469.69;;;13.20;68.70
69624;BME280;56843;52.020;5.670;2022-07-10T02:47:30;102477.44;;;13.21;68.46
69624;BME280;56843;52.020;5.670;2022-07-10T02:49:00;102483.59;;;13.22;68.80
69624;BME280;56843;52.020;5.670;2022-07-10T02:50:31;102477.94;;;13.23;68.80
69624;BME280;56843;52.020;5.670;2022-07-10T02:52:01;102470.69;;;13.24;68.56
69624;BME280;56843;52.020;5.670;2022-07-10T02:53:32;102479.53;;;13.24;68.51
69624;BME280;56843;52.020;5.670;2022-07-10T02:55:02;102473.84;;;13.26;68.56
69624;BME280;56843;52.020;5.670;2022-07-10T02:56:33;102480.03;;;13.26;68.77
69624;BME280;56843;52.020;5.670;2022-07-10T02:58:03;102480.53;;;13.28;68.59
69624;BME280;56843;52.020;5.670;2022-07-10T02:59:34;102480.25;;;13.30;68.36
69624;BME280;56843;52.020;5.670;2022-07-10T03:01:05;102480.72;;;13.32;68.58
69624;BME280;56843;52.020;5.670;2022-07-10T03:02:35;102486.09;;;13.32;68.28
69624;BME280;56843;52.020;5.670;2022-07-10T03:04:06;102484.19;;;13.33;68.77
69624;BME280;56843;52.020;5.670;2022-07-10T03:05:37;102485.00;;;13.33;68.48
69624;BME280;56843;52.020;5.670;2022-07-10T03:07:07;102482.81;;;13.35;68.65
69624;BME280;56843;52.020;5.670;2022-07-10T03:08:38;102485.47;;;13.35;68.79
69624;BME280;56843;52.020;5.670;2022-07-10T03:10:08;102475.56;;;13.36;68.60
69624;BME280;56843;52.020;5.670;2022-07-10T03:11:39;102489.78;;;13.36;68.63
69624;BME280;56843;52.020;5.670;2022-07-10T03:13:09;102484.41;;;13.36;68.27
69624;BME280;56843;52.020;5.670;2022-07-10T03:14:40;102480.59;;;13.37;68.43
69624;BME280;56843;52.020;5.670;2022-07-10T03:16:10;102479.53;;;13.38;68.35
69624;BME280;56843;52.020;5.670;2022-07-10T03:17:41;102476.84;;;13.38;68.24
69624;BME280;56843;52.020;5.670;2022-07-10T03:19:11;102477.66;;;13.39;68.25
69624;BME280;56843;52.020;5.670;2022-07-10T03:20:42;102489.16;;;13.39;68.47
69624;BME280;56843;52.020;5.670;2022-07-10T03:22:13;102480.00;;;13.40;68.22
69624;BME280;56843;52.020;5.670;2022-07-10T03:23:43;102482.69;;;13.40;68.36
69624;BME280;56843;52.020;5.670;2022-07-10T03:25:13;102485.06;;;13.42;68.14
69624;BME280;56843;52.020;5.670;2022-07-10T03:26:44;102484.78;;;13.43;68.52
69624;BME280;56843;52.020;5.670;2022-07-10T03:28:15;102485.88;;;13.42;68.18
69624;BME280;56843;52.020;5.670;2022-07-10T03:29:45;102484.00;;;13.43;68.34
69624;BME280;56843;52.020;5.670;2022-07-10T03:31:16;102484.00;;;13.43;68.55
69624;BME280;56843;52.020;5.670;2022-07-10T03:32:46;102477.50;;;13.44;68.64
69624;BME280;56843;52.020;5.670;2022-07-10T03:34:17;102482.59;;;13.45;68.62
69624;BME280;56843;52.020;5.670;2022-07-10T03:35:47;102481.81;;;13.45;68.55
69624;BME280;56843;52.020;5.670;2022-07-10T03:37:18;102479.59;;;13.47;68.19
69624;BME280;56843;52.020;5.670;2022-07-10T03:38:49;102481.97;;;13.48;68.47
69624;BME280;56843;52.020;5.670;2022-07-10T03:40:19;102478.53;;;13.48;68.54
69624;BME280;56843;52.020;5.670;2022-07-10T03:41:50;102475.84;;;13.48;68.40
69624;BME280;56843;52.020;5.670;2022-07-10T03:43:21;102470.97;;;13.50;68.55
69624;BME280;56843;52.020;5.670;2022-07-10T03:44:51;102469.84;;;13.51;68.54
69624;BME280;56843;52.020;5.670;2022-07-10T03:46:21;102470.66;;;13.51;68.44
69624;BME280;56843;52.020;5.670;2022-07-10T03:47:52;102472.25;;;13.52;68.60
69624;BME280;56843;52.020;5.670;2022-07-10T03:49:22;102476.03;;;13.51;68.61
69624;BME280;56843;52.020;5.670;2022-07-10T03:50:53;102466.09;;;13.52;68.30
69624;BME280;56843;52.020;5.670;2022-07-10T03:52:23;102466.88;;;13.52;68.59
69624;BME280;56843;52.020;5.670;2022-07-10T03:53:54;102480.31;;;13.52;68.60
69624;BME280;56843;52.020;5.670;2022-07-10T03:55:24;102482.19;;;13.52;68.41
69624;BME280;56843;52.020;5.670;2022-07-10T03:56:56;102472.25;;;13.52;68.50
69624;BME280;56843;52.020;5.670;2022-07-10T03:58:45;102470.66;;;13.51;68.41
69624;BME280;56843;52.020;5.670;2022-07-10T04:00:15;102476.81;;;13.52;68.51
69624;BME280;56843;52.020;5.670;2022-07-10T04:01:45;102466.88;;;13.52;68.45
69624;BME280;56843;52.020;5.670;2022-07-10T04:03:16;102480.31;;;13.52;68.66
69624;BME280;56843;52.020;5.670;2022-07-10T04:04:47;102474.63;;;13.54;68.48
69624;BME280;56843;52.020;5.670;2022-07-10T04:06:17;102474.63;;;13.54;68.42
69624;BME280;56843;52.020;5.670;2022-07-10T04:07:48;102464.69;;;13.54;68.49
69624;BME280;56843;52.020;5.670;2022-07-10T04:09:18;102470.06;;;13.54;68.69
69624;BME280;56843;52.020;5.670;2022-07-10T04:10:49;102466.28;;;13.55;68.28
69624;BME280;56843;52.020;5.670;2022-07-10T04:12:19;102461.69;;;13.56;68.51
69624;BME280;56843;52.020;5.670;2022-07-10T04:13:50;102456.81;;;13.58;68.64
69624;BME280;56843;52.020;5.670;2022-07-10T04:15:20;102449.56;;;13.58;68.34
69624;BME280;56843;52.020;5.670;2022-07-10T04:16:51;102449.56;;;13.58;68.81
69624;BME280;56843;52.020;5.670;2022-07-10T04:18:22;102458.44;;;13.59;68.11
69624;BME280;56843;52.020;5.670;2022-07-10T04:19:52;102469.75;;;13.56;68.65
69624;BME280;56843;52.020;5.670;2022-07-10T04:21:23;102461.00;;;13.50;68.77
69624;BME280;56843;52.020;5.670;2022-07-10T04:22:53;102463.19;;;13.48;68.51
69624;BME280;56843;52.020;5.670;2022-07-10T04:24:24;102461.63;;;13.47;69.01
69624;BME280;56843;52.020;5.670;2022-07-10T04:25:56;102466.69;;;13.49;68.72
69624;BME280;56843;52.020;5.670;2022-07-10T04:27:26;102470.16;;;13.49;68.55
69624;BME280;56843;52.020;5.670;2022-07-10T04:28:57;102466.09;;;13.52;68.62
69624;BME280;56843;52.020;5.670;2022-07-10T04:30:27;102459.31;;;13.54;68.58
69624;BME280;56843;52.020;5.670;2022-07-10T04:31:58;102457.91;;;13.57;68.34
69624;BME280;56843;52.020;5.670;2022-07-10T04:33:28;102465.84;;;13.62;68.74
69624;BME280;56843;52.020;5.670;2022-07-10T04:34:59;102456.91;;;13.66;68.43
69624;BME280;56843;52.020;5.670;2022-07-10T04:36:31;102462.47;;;13.70;67.99
69624;BME280;56843;52.020;5.670;2022-07-10T04:38:01;102458.34;;;13.72;68.33
69624;BME280;56843;52.020;5.670;2022-07-10T04:39:32;102459.38;;;13.76;68.04
69624;BME280;56843;52.020;5.670;2022-07-10T04:41:02;102456.53;;;13.81;67.95
69624;BME280;56843;52.020;5.670;2022-07-10T04:42:33;102462.59;;;13.87;67.69
69624;BME280;56843;52.020;5.670;2022-07-10T04:44:03;102460.09;;;13.90;67.87
69624;BME280;56843;52.020;5.670;2022-07-10T04:45:34;102466.75;;;13.93;67.90
69624;BME280;56843;52.020;5.670;2022-07-10T04:47:05;102456.25;;;13.96;67.73
69624;BME280;56843;52.020;5.670;2022-07-10T04:48:36;102464.16;;;14.02;67.75
69624;BME280;56843;52.020;5.670;2022-07-10T04:50:07;102464.53;;;14.09;67.57
69624;BME280;56843;52.020;5.670;2022-07-10T04:51:38;102461.41;;;14.15;67.28
69624;BME280;56843;52.020;5.670;2022-07-10T04:53:08;102451.03;;;14.22;66.89
69624;BME280;56843;52.020;5.670;2022-07-10T04:54:39;102457.06;;;14.28;66.56
69624;BME280;56843;52.020;5.670;2022-07-10T04:56:09;102450.47;;;14.34;66.48
69624;BME280;56843;52.020;5.670;2022-07-10T04:57:40;102460.78;;;14.40;66.52
69624;BME280;56843;52.020;5.670;2022-07-10T04:59:14;102464.31;;;14.49;66.23
69624;BME280;56843;52.020;5.670;2022-07-10T05:00:45;102461.19;;;14.56;65.98
69624;BME280;56843;52.020;5.670;2022-07-10T05:02:15;102457.88;;;14.59;65.89
69624;BME280;56843;52.020;5.670;2022-07-10T05:03:46;102459.63;;;14.63;66.08
69624;BME280;56843;52.020;5.670;2022-07-10T05:05:16;102453.66;;;14.66;65.82
69624;BME280;56843;52.020;5.670;2022-07-10T05:06:47;102456.22;;;14.71;65.83
69624;BME280;56843;52.020;5.670;2022-07-10T05:08:17;102460.94;;;14.74;65.84
69624;BME280;56843;52.020;5.670;2022-07-10T05:09:48;102465.13;;;14.81;65.54
69624;BME280;56843;52.020;5.670;2022-07-10T05:11:18;102461.34;;;14.90;65.39
69624;BME280;56843;52.020;5.670;2022-07-10T05:12:49;102466.47;;;15.00;65.20
69624;BME280;56843;52.020;5.670;2022-07-10T05:14:19;102468.56;;;15.12;64.66
69624;BME280;56843;52.020;5.670;2022-07-10T05:15:50;102468.44;;;15.25;64.45
69624;BME280;56843;52.020;5.670;2022-07-10T05:17:20;102472.88;;;15.30;64.41
69624;BME280;56843;52.020;5.670;2022-07-10T05:18:50;102475.28;;;15.31;64.02
69624;BME280;56843;52.020;5.670;2022-07-10T05:20:21;102466.06;;;15.32;64.19
69624;BME280;56843;52.020;5.670;2022-07-10T05:21:51;102460.22;;;15.30;64.12
69624;BME280;56843;52.020;5.670;2022-07-10T05:23:22;102462.91;;;15.30;64.13
69624;BME280;56843;52.020;5.670;2022-07-10T05:24:52;102466.69;;;15.29;64.55
69624;BME280;56843;52.020;5.670;2022-07-10T05:26:23;102467.00;;;15.28;64.36
69624;BME280;56843;52.020;5.670;2022-07-10T05:27:53;102464.00;;;15.29;64.54
69624;BME280;56843;52.020;5.670;2022-07-10T05:29:24;102464.81;;;15.30;64.37
69624;BME280;56843;52.020;5.670;2022-07-10T05:30:54;102462.78;;;15.35;64.35
69624;BME280;56843;52.020;5.670;2022-07-10T05:32:25;102463.56;;;15.44;64.23
69624;BME280;56843;52.020;5.670;2022-07-10T05:33:55;102470.06;;;15.52;64.02
69624;BME280;56843;52.020;5.670;2022-07-10T05:35:26;102467.84;;;15.63;63.78
69624;BME280;56843;52.020;5.670;2022-07-10T05:36:56;102469.59;;;15.76;63.41
69624;BME280;56843;52.020;5.670;2022-07-10T05:38:27;102464.38;;;15.79;63.30
69624;BME280;56843;52.020;5.670;2022-07-10T05:39:58;102470.88;;;15.78;63.03
69624;BME280;56843;52.020;5.670;2022-07-10T05:41:28;102469.31;;;15.69;63.36
69624;BME280;56843;52.020;5.670;2022-07-10T05:42:59;102469.31;;;15.60;63.64
69624;BME280;56843;52.020;5.670;2022-07-10T05:44:29;102477.06;;;15.53;64.14
69624;BME280;56843;52.020;5.670;2022-07-10T05:46:00;102468.03;;;15.49;64.08
69624;BME280;56843;52.020;5.670;2022-07-10T05:47:30;102475.75;;;15.42;64.28
69624;BME280;56843;52.020;5.670;2022-07-10T05:49:00;102475.59;;;15.38;64.40
69624;BME280;56843;52.020;5.670;2022-07-10T05:50:31;102481.63;;;15.35;64.66
69624;BME280;56843;52.020;5.670;2022-07-10T05:52:02;102466.06;;;15.32;64.71
69624;BME280;56843;52.020;5.670;2022-07-10T05:53:32;102474.63;;;15.26;64.77
69624;BME280;56843;52.020;5.670;2022-07-10T05:55:03;102470.97;;;15.22;65.01
69624;BME280;56843;52.020;5.670;2022-07-10T05:56:34;102461.28;;;15.21;65.29
69624;BME280;56843;52.020;5.670;2022-07-10T05:58:05;102471.59;;;15.19;65.21
69624;BME280;56843;52.020;5.670;2022-07-10T05:59:35;102460.66;;;15.15;65.26
69624;BME280;56843;52.020;5.670;2022-07-10T06:01:05;102476.63;;;15.12;65.70
69624;BME280;56843;52.020;5.670;2022-07-10T06:02:36;102472.69;;;15.09;65.67
69624;BME280;56843;52.020;5.670;2022-07-10T06:04:06;102473.44;;;15.10;65.71
69624;BME280;56843;52.020;5.670;2022-07-10T06:05:38;102479.97;;;15.09;65.40
69624;BME280;56843;52.020;5.670;2022-07-10T06:07:08;102468.41;;;15.08;65.73
69624;BME280;56843;52.020;5.670;2022-07-10T06:08:39;102474.25;;;15.10;65.42
69624;BME280;56843;52.020;5.670;2022-07-10T06:10:09;102480.13;;;15.12;65.63
69624;BME280;56843;52.020;5.670;2022-07-10T06:11:40;102478.84;;;15.10;65.87
69624;BME280;56843;52.020;5.670;2022-07-10T06:13:12;102473.16;;;15.11;65.36
69624;BME280;56843;52.020;5.670;2022-07-10T06:14:42;102469.34;;;15.12;65.78
69624;BME280;56843;52.020;5.670;2022-07-10T06:16:13;102478.53;;;15.11;65.64
69624;BME280;56843;52.020;5.670;2022-07-10T06:17:43;102470.47;;;15.11;65.65
69624;BME280;56843;52.020;5.670;2022-07-10T06:19:14;102472.38;;;15.11;65.57
69624;BME280;56843;52.020;5.670;2022-07-10T06:20:44;102482.31;;;15.10;66.03
69624;BME280;56843;52.020;5.670;2022-07-10T06:22:15;102481.84;;;15.08;65.92
69624;BME280;56843;52.020;5.670;2022-07-10T06:24:01;102484.66;;;15.03;66.41
69624;BME280;56843;52.020;5.670;2022-07-10T06:25:31;102479.28;;;15.03;66.53
69624;BME280;56843;52.020;5.670;2022-07-10T06:27:02;102486.28;;;15.04;66.33
69624;BME280;56843;52.020;5.670;2022-07-10T06:28:34;102481.38;;;15.06;66.38
69624;BME280;56843;52.020;5.670;2022-07-10T06:30:05;102480.56;;;15.06;66.51
69624;BME280;56843;52.020;5.670;2022-07-10T06:31:36;102483.25;;;15.06;66.45
69624;BME280;56843;52.020;5.670;2022-07-10T06:33:06;102488.63;;;15.06;66.56
69624;BME280;56843;52.020;5.670;2022-07-10T06:34:37;102480.56;;;15.06;66.67
69624;BME280;56843;52.020;5.670;2022-07-10T06:36:08;102495.25;;;15.00;67.13
69624;BME280;56843;52.020;5.670;2022-07-10T06:37:38;102487.63;;;14.93;67.43
69624;BME280;56843;52.020;5.670;2022-07-10T06:39:09;102487.28;;;14.86;67.89
69624;BME280;56843;52.020;5.670;2022-07-10T06:40:41;102482.50;;;14.83;68.14
69624;BME280;56843;52.020;5.670;2022-07-10T06:42:12;102485.34;;;14.78;68.79
69624;BME280;56843;52.020;5.670;2022-07-10T06:43:44;102490.06;;;14.72;69.14
69624;BME280;56843;52.020;5.670;2022-07-10T06:45:14;102482.09;;;14.67;69.22
69624;BME280;56843;52.020;5.670;2022-07-10T06:46:45;102481.94;;;14.64;69.37
69624;BME280;56843;52.020;5.670;2022-07-10T06:48:35;102481.94;;;14.64;69.53
69624;BME280;56843;52.020;5.670;2022-07-10T06:50:10;102479.13;;;14.69;69.28
69624;BME280;56843;52.020;5.670;2022-07-10T06:51:40;102487.56;;;14.76;69.04
69624;BME280;56843;52.020;5.670;2022-07-10T06:53:11;102489.00;;;14.82;69.02
69624;BME280;56843;52.020;5.670;2022-07-10T06:54:42;102487.28;;;14.86;68.94
69624;BME280;56843;52.020;5.670;2022-07-10T06:56:13;102487.44;;;14.90;68.78
69624;BME280;56843;52.020;5.670;2022-07-10T06:57:46;102480.97;;;14.91;69.00
69624;BME280;56843;52.020;5.670;2022-07-10T06:59:16;102484.28;;;14.96;68.80
69624;BME280;56843;52.020;5.670;2022-07-10T07:00:47;102479.94;;;15.00;68.66
69624;BME280;56843;52.020;5.670;2022-07-10T07:02:18;102480.56;;;15.06;68.30
69624;BME280;56843;52.020;5.670;2022-07-10T07:03:48;102487.56;;;15.15;68.31
69624;BME280;56843;52.020;5.670;2022-07-10T07:05:19;102479.53;;;15.24;67.78
69624;BME280;56843;52.020;5.670;2022-07-10T07:06:50;102479.06;;;15.30;67.67
69624;BME280;56843;52.020;5.670;2022-07-10T07:08:20;102474.81;;;15.38;67.62
69624;BME280;56843;52.020;5.670;2022-07-10T07:09:51;102475.91;;;15.45;67.09
69624;BME280;56843;52.020;5.670;2022-07-10T09:57:56;102451.19;;;23.72;44.66
69624;BME280;56843;52.020;5.670;2022-07-10T09:59:30;102449.28;;;23.76;44.03
69624;BME280;56843;52.020;5.670;2022-07-10T10:01:08;102445.25;;;23.63;44.27
69624;BME280;56843;52.020;5.670;2022-07-10T10:02:39;102444.75;;;23.57;43.89
69624;BME280;56843;52.020;5.670;2022-07-10T10:04:10;102439.69;;;23.56;44.21
69624;BME280;56843;52.020;5.670;2022-07-10T10:05:54;102450.28;;;23.61;43.96
69624;BME280;56843;52.020;5.670;2022-07-10T10:07:25;102441.72;;;23.95;43.22
69624;BME280;56843;52.020;5.670;2022-07-10T10:09:05;102436.75;;;24.48;42.21
69624;BME280;56843;52.020;5.670;2022-07-10T10:10:42;102446.38;;;24.79;41.41
69624;BME280;56843;52.020;5.670;2022-07-10T10:12:19;102444.97;;;24.96;40.90
69624;BME280;56843;52.020;5.670;2022-07-10T10:13:52;102448.53;;;25.07;40.71
69624;BME280;56843;52.020;5.670;2022-07-10T10:15:24;102438.91;;;25.30;40.26
69624;BME280;56843;52.020;5.670;2022-07-10T10:16:56;102435.84;;;25.46;39.73
69624;BME280;56843;52.020;5.670;2022-07-10T10:18:27;102441.72;;;25.48;39.88
69624;BME280;56843;52.020;5.670;2022-07-10T10:20:00;102435.88;;;25.49;39.67
69624;BME280;56843;52.020;5.670;2022-07-10T10:21:50;102437.09;;;25.63;39.47
69624;BME280;56843;52.020;5.670;2022-07-10T10:23:23;102440.19;;;25.54;39.44
69624;BME280;56843;52.020;5.670;2022-07-10T10:24:55;102440.50;;;25.38;39.90
69624;BME280;56843;52.020;5.670;2022-07-10T10:26:27;102431.97;;;25.54;39.82
69624;BME280;56843;52.020;5.670;2022-07-10T10:28:02;102441.75;;;25.55;39.30
69624;BME280;56843;52.020;5.670;2022-07-10T10:29:36;102446.84;;;25.53;39.44
69624;BME280;56843;52.020;5.670;2022-07-10T10:31:08;102445.69;;;25.58;39.02
69624;BME280;56843;52.020;5.670;2022-07-10T10:32:40;102442.19;;;25.64;38.83
69624;BME280;56843;52.020;5.670;2022-07-10T10:34:11;102448.81;;;25.60;38.64
69624;BME280;56843;52.020;5.670;2022-07-10T10:35:45;102435.78;;;25.32;39.27
69624;BME280;56843;52.020;5.670;2022-07-10T10:37:43;102446.22;;;25.12;39.65
69624;BME280;56843;52.020;5.670;2022-07-10T10:39:20;102439.03;;;24.90;39.95
69624;BME280;56843;52.020;5.670;2022-07-10T10:40:51;102443.69;;;24.83;40.59
69624;BME280;56843;52.020;5.670;2022-07-10T10:45:41;102447.13;;;24.29;41.59
69624;BME280;56843;52.020;5.670;2022-07-10T10:47:12;102448.22;;;24.21;41.70